• Join FlightAware (Why Join?)
  • Login
  • US Flag 
08:42PM EDT


 

Airport Tracker/Info


-or-


 

Live Flight TrackerFlight Track Log ✈ FDX1286 ✈ 17-Jul-2013 ✈ KLCK - KMEM

Flight Track Log - Related Links

Times and Time Zones

All times are in EDT time to prevent confusion due to time zone crossing. See the FDX1286 flight status page for this flight to view local times or setup timezone preferences in your user account.

Time Position Orientation Groundspeed Altitude Reporting Facility
EDT Latitude Longitude Course Direction KTS MPH feet Rate Location/Type
10:28PM 39.7940 -82.9530 221° Southwest 174 200 1,800  Level FlightAware
10:28PM 39.7850 -82.9700 235° Southwest 196 226 2,300 1,500 Climbing FlightAware
10:28PM 39.7850 -82.9770 270° West 204 235 2,400 1,860 Climbing FlightAware
10:29PM 39.7990 -83.0300 289° West 250 288 3,800 2,220 Climbing FlightAware
10:29PM 39.8050 -83.0480 293° West 261 300 4,400 3,300 Climbing FlightAware
10:30PM 39.8190 -83.0890 294° West 270 311 6,000 3,300 Climbing FlightAware
10:30PM 39.8320 -83.1330 291° West 281 323 7,500 3,120 Climbing FlightAware
10:31PM 39.8150 -83.2030 252° West 287 330 9,800 2,520 Climbing FlightAware
10:32PM 39.7860 -83.2680 240° Southwest 328 377 11,100 1,920 Climbing FlightAware
10:32PM 39.7470 -83.3480 238° Southwest 363 418 12,600 2,220 Climbing FlightAware
10:33PM 39.7070 -83.4210 235° Southwest 377 434 14,300 2,520 Climbing FlightAware
10:34PM 39.6640 -83.4820 228° Southwest 387 445 15,800 2,340 Climbing FlightAware
10:34PM 39.6090 -83.5480 223° Southwest 403 464 17,300 2,340 Climbing FlightAware
10:35PM 39.5470 -83.6170 221° Southwest 410 472 19,100 2,280 Climbing FlightAware
10:36PM 39.4950 -83.6770 222° Southwest 420 483 20,400 2,040 Climbing FlightAware
10:36PM 39.4350 -83.7450 221° Southwest 430 495 21,700 2,040 Climbing FlightAware
10:37PM 39.3700 -83.8190 221° Southwest 433 498 23,300 1,980 Climbing FlightAware
10:38PM 39.3160 -83.8790 221° Southwest 439 505 24,400 1,620 Climbing FlightAware
10:38PM 39.2480 -83.9560 221° Southwest 450 518 25,500 1,620 Climbing FlightAware
10:39PM 39.1790 -84.0320 221° Southwest 453 521 26,800 1,020 Climbing FlightAware
10:40PM 39.1130 -84.1070 221° Southwest 457 526 27,100 180 Climbing FlightAware
10:41PM 39.0640 -84.1620 221° Southwest 457 526 27,100 1,920 Level FlightAware
10:42PM 38.9210 -84.3190 221° Southwest 478 550 30,700 2,280 Climbing FlightAware
10:42PM 38.8620 -84.3840 221° Southwest 485 558 31,300 480 Climbing FlightAware
10:43PM 38.7900 -84.4620 220° Southwest 487 560 31,400 1,680 Climbing FlightAware
10:44PM 38.7150 -84.5470 221° Southwest 480 552 33,900 1,860 Climbing FlightAware
10:45PM 38.6620 -84.6060 221° Southwest 480 552 33,900 960 Level FlightAware
10:45PM 38.5810 -84.6940 220° Southwest 469 540 35,300 960 Climbing FlightAware
10:46PM 38.5310 -84.7490 221° Southwest 469 540 35,300 480 Level FlightAware
10:47PM 38.4650 -84.8640 234° Southwest 468 539 36,000 420 Climbing FlightAware
10:48PM 38.3950 -84.9920 235° Southwest 471 542 36,000  Level FlightAware
10:48PM 38.3320 -85.0710 225° Southwest 468 539 36,000  Level FlightAware
10:49PM 38.2370 -85.1670 218° Southwest 467 537 36,000  Level FlightAware
10:50PM 38.1797 -85.2250 219° Southwest 466 536 36,000  Level FlightAware ADS-B
10:50PM 38.1100 -85.2940 218° Southwest 465 535 36,000  Level FlightAware
10:51PM 38.0420 -85.3610 218° Southwest 466 536 36,000  Level FlightAware
10:52PM 37.9480 -85.4540 218° Southwest 464 534 36,000  Level FlightAware
10:53PM 37.8740 -85.5280 218° Southwest 466 536 36,000  Level FlightAware
10:53PM 37.8050 -85.5940 217° Southwest 468 539 36,000  Level FlightAware
10:54PM 37.7340 -85.6650 218° Southwest 471 542 36,000  Level FlightAware
10:55PM 37.6690 -85.7280 218° Southwest 473 544 36,000 60 Level FlightAware
10:55PM 37.6000 -85.7970 218° Southwest 474 545 36,100 60 Climbing FlightAware
10:56PM 37.5320 -85.8610 217° Southwest 475 547 36,100  Level FlightAware
10:57PM 37.4590 -85.9320 218° Southwest 474 545 36,100 -120 Level FlightAware
10:57PM 37.3980 -85.9930 218° Southwest 472 543 36,000 -120 Descending FlightAware
10:58PM 37.2940 -86.0930 217° Southwest 470 541 36,000  Level FlightAware
10:59PM 37.2260 -86.1580 217° Southwest 471 542 36,000  Level FlightAware
10:59PM 37.1749 -86.2079 218° Southwest 470 541 36,000  Level FlightAware ADS-B
11:00PM 37.1216 -86.2593 218° Southwest 470 541 36,000  Level FlightAware ADS-B
11:00PM 37.0692 -86.3091 217° Southwest 470 541 36,000  Level FlightAware ADS-B
11:01PM 37.0162 -86.3601 218° Southwest 470 541 36,000  Level FlightAware ADS-B
11:01PM 36.9642 -86.4096 217° Southwest 470 541 36,000  Level FlightAware ADS-B
11:02PM 36.9388 -86.4352 219° Southwest 473 544 36,000  Level FlightAware ADS-B
11:02PM 36.9053 -86.4787 226° Southwest 478 550 36,000  Level FlightAware ADS-B
11:03PM 36.8619 -86.5420 229° Southwest 478 550 36,000  Level FlightAware ADS-B
11:03PM 36.8192 -86.6053 230° Southwest 478 550 36,000  Level FlightAware ADS-B
11:04PM 36.7760 -86.6685 230° Southwest 479 551 36,000  Level FlightAware ADS-B
11:04PM 36.7321 -86.7338 230° Southwest 479 551 36,000  Level FlightAware ADS-B
11:05PM 36.6833 -86.8054 230° Southwest 479 551 36,000  Level FlightAware ADS-B
11:05PM 36.6384 -86.8706 229° Southwest 480 552 36,000  Level FlightAware ADS-B
11:06PM 36.5850 -86.9490 230° Southwest 481 554 36,000  Level FlightAware
11:07PM 36.5230 -87.0390 229° Southwest 482 555 36,000 60 Level FlightAware
11:07PM 36.4620 -87.1270 229° Southwest 481 554 36,100  Climbing FlightAware
11:08PM 36.3840 -87.1890 213° Southwest 462 532 36,000 -120 Descending FlightAware
11:09PM 36.2990 -87.2000 186° South 455 524 36,000  Level FlightAware
11:09PM 36.2230 -87.2050 183° South 456 525 36,000  Level FlightAware
11:10PM 36.1380 -87.2090 182° South 446 513 36,000  Level FlightAware
11:11PM 36.0590 -87.2150 184° South 429 494 36,000  Level FlightAware
11:11PM 35.9830 -87.2490 200° South 455 524 36,000 -240 Level FlightAware
11:12PM 35.9540 -87.2870 227° Southwest 476 548 35,800 -720 Descending FlightAware ADS-B
11:12PM 35.9480 -87.2983 237° Southwest 481 554 35,700 -540 Descending FlightAware ADS-B
11:12PM 35.9406 -87.3157 242° Southwest 489 563 35,700 -960 Level FlightAware ADS-B
11:12PM 35.9350 -87.3336 249° West 492 566 35,500 -1,140 Descending FlightAware ADS-B
11:12PM 35.9292 -87.3576 253° West 488 562 35,400 -600 Descending FlightAware ADS-B
11:13PM 35.9330 -87.4770 272° West 475 547 35,000 -300 Descending FlightAware
11:14PM 35.9510 -87.6100 280° West 494 568 35,000 -300 Level FlightAware
11:14PM 35.9630 -87.7280 277° West 493 567 34,600 -780 Descending FlightAware
11:15PM 35.9440 -87.8300 257° West 486 559 34,000 -1,260 Descending FlightAware
11:16PM 35.8880 -87.9270 235° Southwest 486 559 32,900 -2,040 Descending FlightAware
11:16PM 35.8340 -88.0080 231° Southwest 488 562 31,300 -2,640 Descending FlightAware
11:17PM 35.7550 -88.1270 231° Southwest 477 549 28,900 -1,920 Descending FlightAware
11:18PM 35.6930 -88.2160 229° Southwest 470 541 28,000 -660 Descending FlightAware
11:19PM 35.6500 -88.2790 230° Southwest 470 541 28,000  Level FlightAware
11:19PM 35.5930 -88.3630 230° Southwest 470 541 28,000  Level FlightAware
11:20PM 35.5500 -88.4250 230° Southwest 470 541 28,000  Level FlightAware
11:21PM 35.5080 -88.4880 231° Southwest 470 541 28,000 -6,840 Level FlightAware
11:21PM 35.4217 -88.5531 231° Southwest 440 506 20,200 -6,120 Descending Memphis Center
11:22PM 35.3158 -88.5833 193° South 409 471 18,600 -1,260 Descending Memphis Center
11:23PM 35.2100 -88.6239 197° South 403 464 17,700 -1,440 Descending Memphis Center
11:24PM 35.1469 -88.7319 235° Southwest 372 428 15,800 -2,100 Descending Memphis Center
11:25PM 35.1067 -88.8469 247° West 372 428 13,500 -2,100 Descending Memphis Center
11:26PM 35.0703 -88.9617 249° West 372 428 11,600 -1,500 Descending Memphis Center
11:27PM 35.0381 -89.0661 249° West 349 402 10,600 -1,200 Descending Memphis Center
11:28PM 35.0347 -89.1550 267° West 314 361 9,300 -1,740 Descending Memphis Center
11:29PM 35.0378 -89.2564 272° West 301 346 7,200 -1,500 Descending Memphis Center
11:30PM 35.0408 -89.3475 272° West 288 331 6,400 -900 Descending Memphis Center
11:31PM 35.0456 -89.4289 274° West 262 302 5,500 -1,080 Descending Memphis Center
11:32PM 35.0483 -89.5100 272° West 245 282 4,300 -780 Descending Memphis Center
11:33PM 35.0508 -89.5886 272° West 237 273 4,000 -180 Descending Memphis Center
11:34PM 35.0514 -89.6672 271° West 237 273 4,000 -540 Level Memphis Center
11:35PM 35.0539 -89.7483 272° West 237 273 3,000 -1,080 Descending Memphis Center
11:36PM 35.0564 -89.8294 272° West 237 273 1,900 -780 Descending Memphis Center
11:37PM 35.0500 -89.8833 262° West 152 175 1,600 -660 Descending KMEM
11:38PM 35.0500 -89.9333 270° West 132 152 700 -840 Descending KMEM
11:43PM 35.0333 -89.9667 270° West  Level FlightAware Approximate
11:50PM 35.0424 -89.9767 270° West  Level Estimated
11:51PM 35.0424 -89.9767 270° West  Level Estimated
11:52PM 35.0424 -89.9767 270° West  Level Estimated
11:53PM 35.0424 -89.9767 270° West  Level Estimated
11:54PM 35.0424 -89.9767 270° West  Level Estimated